sensor_id;sensor_type;location;lat;lon;timestamp;P1;durP1;ratioP1;P2;durP2;ratioP2
9102;SDS011;4587;51.434;6.788;2023-02-12T00:01:20;54.43;;;41.73;;
9102;SDS011;4587;51.434;6.788;2023-02-12T00:03:47;56.87;;;42.63;;
9102;SDS011;4587;51.434;6.788;2023-02-12T00:06:13;54.73;;;43.27;;
9102;SDS011;4587;51.434;6.788;2023-02-12T00:08:39;57.73;;;42.97;;
9102;SDS011;4587;51.434;6.788;2023-02-12T00:13:44;58.80;;;43.33;;
9102;SDS011;4587;51.434;6.788;2023-02-12T00:16:10;56.03;;;42.57;;
9102;SDS011;4587;51.434;6.788;2023-02-12T00:18:39;51.43;;;40.30;;
9102;SDS011;4587;51.434;6.788;2023-02-12T00:21:05;56.10;;;41.00;;
9102;SDS011;4587;51.434;6.788;2023-02-12T00:23:32;50.03;;;39.67;;
9102;SDS011;4587;51.434;6.788;2023-02-12T00:25:59;59.17;;;42.80;;
9102;SDS011;4587;51.434;6.788;2023-02-12T00:28:24;52.33;;;40.93;;
9102;SDS011;4587;51.434;6.788;2023-02-12T00:30:51;52.90;;;40.40;;
9102;SDS011;4587;51.434;6.788;2023-02-12T00:33:17;53.20;;;39.97;;
9102;SDS011;4587;51.434;6.788;2023-02-12T00:35:42;57.60;;;41.90;;
9102;SDS011;4587;51.434;6.788;2023-02-12T00:38:08;53.10;;;41.90;;
9102;SDS011;4587;51.434;6.788;2023-02-12T00:40:34;53.60;;;40.07;;
9102;SDS011;4587;51.434;6.788;2023-02-12T00:42:59;56.20;;;40.73;;
9102;SDS011;4587;51.434;6.788;2023-02-12T00:45:25;51.60;;;39.70;;
9102;SDS011;4587;51.434;6.788;2023-02-12T00:47:50;54.80;;;42.30;;
9102;SDS011;4587;51.434;6.788;2023-02-12T00:50:16;53.83;;;40.07;;
9102;SDS011;4587;51.434;6.788;2023-02-12T00:52:41;51.57;;;39.37;;
9102;SDS011;4587;51.434;6.788;2023-02-12T00:55:07;57.20;;;42.07;;
9102;SDS011;4587;51.434;6.788;2023-02-12T00:57:33;54.30;;;40.67;;
9102;SDS011;4587;51.434;6.788;2023-02-12T00:59:58;54.97;;;41.67;;
9102;SDS011;4587;51.434;6.788;2023-02-12T01:02:24;54.00;;;40.93;;
9102;SDS011;4587;51.434;6.788;2023-02-12T01:04:50;51.27;;;40.07;;
9102;SDS011;4587;51.434;6.788;2023-02-12T01:07:15;55.20;;;39.70;;
9102;SDS011;4587;51.434;6.788;2023-02-12T01:09:41;54.60;;;40.50;;
9102;SDS011;4587;51.434;6.788;2023-02-12T01:12:07;54.63;;;42.07;;
9102;SDS011;4587;51.434;6.788;2023-02-12T01:14:32;55.73;;;40.70;;
9102;SDS011;4587;51.434;6.788;2023-02-12T01:16:58;52.97;;;40.50;;
9102;SDS011;4587;51.434;6.788;2023-02-12T01:19:23;53.33;;;41.93;;
9102;SDS011;4587;51.434;6.788;2023-02-12T01:21:49;58.00;;;43.87;;
9102;SDS011;4587;51.434;6.788;2023-02-12T01:24:15;58.13;;;41.67;;
9102;SDS011;4587;51.434;6.788;2023-02-12T01:26:40;56.63;;;42.43;;
9102;SDS011;4587;51.434;6.788;2023-02-12T01:29:06;54.17;;;42.27;;
9102;SDS011;4587;51.434;6.788;2023-02-12T01:31:34;53.43;;;41.43;;
9102;SDS011;4587;51.434;6.788;2023-02-12T01:34:01;58.27;;;42.10;;
9102;SDS011;4587;51.434;6.788;2023-02-12T01:36:29;53.30;;;40.60;;
9102;SDS011;4587;51.434;6.788;2023-02-12T01:38:55;58.10;;;41.30;;
9102;SDS011;4587;51.434;6.788;2023-02-12T01:41:23;55.57;;;41.93;;
9102;SDS011;4587;51.434;6.788;2023-02-12T01:46:40;56.80;;;42.47;;
9102;SDS011;4587;51.434;6.788;2023-02-12T01:49:09;57.30;;;42.63;;
9102;SDS011;4587;51.434;6.788;2023-02-12T01:51:45;55.87;;;41.47;;
9102;SDS011;4587;51.434;6.788;2023-02-12T01:54:14;58.07;;;41.17;;
9102;SDS011;4587;51.434;6.788;2023-02-12T01:56:43;55.07;;;41.23;;
9102;SDS011;4587;51.434;6.788;2023-02-12T01:59:09;54.10;;;41.93;;
9102;SDS011;4587;51.434;6.788;2023-02-12T02:01:36;58.60;;;42.03;;
9102;SDS011;4587;51.434;6.788;2023-02-12T02:04:04;53.60;;;41.93;;
9102;SDS011;4587;51.434;6.788;2023-02-12T02:06:40;55.40;;;41.07;;
9102;SDS011;4587;51.434;6.788;2023-02-12T02:09:11;56.03;;;40.50;;
9102;SDS011;4587;51.434;6.788;2023-02-12T02:11:37;54.57;;;41.23;;
9102;SDS011;4587;51.434;6.788;2023-02-12T02:14:21;59.10;;;42.57;;
9102;SDS011;4587;51.434;6.788;2023-02-12T02:34:02;52.30;;;41.00;;
9102;SDS011;4587;51.434;6.788;2023-02-12T02:42:27;54.37;;;40.53;;
9102;SDS011;4587;51.434;6.788;2023-02-12T02:45:05;54.63;;;40.97;;
9102;SDS011;4587;51.434;6.788;2023-02-12T02:47:38;51.83;;;39.43;;
9102;SDS011;4587;51.434;6.788;2023-02-12T02:50:12;54.63;;;41.23;;
9102;SDS011;4587;51.434;6.788;2023-02-12T02:52:47;51.57;;;40.20;;
9102;SDS011;4587;51.434;6.788;2023-02-12T02:55:18;52.97;;;40.37;;
9102;SDS011;4587;51.434;6.788;2023-02-12T02:57:56;50.83;;;40.23;;
9102;SDS011;4587;51.434;6.788;2023-02-12T03:00:27;54.63;;;39.90;;
9102;SDS011;4587;51.434;6.788;2023-02-12T03:03:09;50.63;;;39.07;;
9102;SDS011;4587;51.434;6.788;2023-02-12T03:05:43;51.13;;;39.33;;
9102;SDS011;4587;51.434;6.788;2023-02-12T03:08:22;52.03;;;40.27;;
9102;SDS011;4587;51.434;6.788;2023-02-12T03:13:59;51.33;;;40.50;;
9102;SDS011;4587;51.434;6.788;2023-02-12T03:16:30;58.00;;;41.40;;
9102;SDS011;4587;51.434;6.788;2023-02-12T03:19:05;52.63;;;39.93;;
9102;SDS011;4587;51.434;6.788;2023-02-12T03:21:55;53.60;;;39.80;;
9102;SDS011;4587;51.434;6.788;2023-02-12T03:27:26;56.30;;;41.87;;
9102;SDS011;4587;51.434;6.788;2023-02-12T03:29:55;59.33;;;42.30;;
9102;SDS011;4587;51.434;6.788;2023-02-12T03:35:41;57.63;;;40.83;;
9102;SDS011;4587;51.434;6.788;2023-02-12T03:38:36;55.23;;;41.00;;
9102;SDS011;4587;51.434;6.788;2023-02-12T03:41:10;49.00;;;38.73;;
9102;SDS011;4587;51.434;6.788;2023-02-12T03:49:37;53.27;;;39.37;;
9102;SDS011;4587;51.434;6.788;2023-02-12T03:52:12;52.57;;;38.90;;
9102;SDS011;4587;51.434;6.788;2023-02-12T03:54:38;59.20;;;40.73;;
9102;SDS011;4587;51.434;6.788;2023-02-12T03:57:08;52.17;;;38.17;;
9102;SDS011;4587;51.434;6.788;2023-02-12T03:59:38;52.73;;;39.40;;
9102;SDS011;4587;51.434;6.788;2023-02-12T04:02:04;56.87;;;40.40;;
9102;SDS011;4587;51.434;6.788;2023-02-12T04:04:30;57.27;;;39.67;;
9102;SDS011;4587;51.434;6.788;2023-02-12T04:06:56;56.30;;;39.80;;
9102;SDS011;4587;51.434;6.788;2023-02-12T04:09:23;56.70;;;40.17;;
9102;SDS011;4587;51.434;6.788;2023-02-12T04:17:58;51.57;;;40.00;;
9102;SDS011;4587;51.434;6.788;2023-02-12T04:20:47;55.17;;;39.27;;
9102;SDS011;4587;51.434;6.788;2023-02-12T04:23:38;53.53;;;39.60;;
9102;SDS011;4587;51.434;6.788;2023-02-12T04:29:09;53.30;;;39.70;;
9102;SDS011;4587;51.434;6.788;2023-02-12T04:37:45;53.83;;;40.83;;
9102;SDS011;4587;51.434;6.788;2023-02-12T04:39:54;54.53;;;39.10;;
9102;SDS011;4587;51.434;6.788;2023-02-12T04:42:22;53.13;;;39.23;;
9102;SDS011;4587;51.434;6.788;2023-02-12T04:44:47;54.50;;;40.03;;
9102;SDS011;4587;51.434;6.788;2023-02-12T04:47:14;57.67;;;41.23;;
9102;SDS011;4587;51.434;6.788;2023-02-12T04:49:40;52.03;;;38.37;;
9102;SDS011;4587;51.434;6.788;2023-02-12T04:52:07;54.27;;;40.37;;
9102;SDS011;4587;51.434;6.788;2023-02-12T04:54:33;55.83;;;38.73;;
9102;SDS011;4587;51.434;6.788;2023-02-12T04:56:59;56.97;;;39.80;;
9102;SDS011;4587;51.434;6.788;2023-02-12T04:59:24;56.53;;;40.57;;
9102;SDS011;4587;51.434;6.788;2023-02-12T05:01:50;54.30;;;40.23;;
9102;SDS011;4587;51.434;6.788;2023-02-12T05:04:16;53.47;;;39.33;;
9102;SDS011;4587;51.434;6.788;2023-02-12T05:06:43;56.00;;;39.70;;
9102;SDS011;4587;51.434;6.788;2023-02-12T05:09:12;53.80;;;39.20;;
9102;SDS011;4587;51.434;6.788;2023-02-12T05:11:42;56.87;;;41.83;;
9102;SDS011;4587;51.434;6.788;2023-02-12T05:14:08;54.33;;;39.73;;
9102;SDS011;4587;51.434;6.788;2023-02-12T05:16:33;57.27;;;41.17;;
9102;SDS011;4587;51.434;6.788;2023-02-12T05:18:59;56.30;;;41.30;;
9102;SDS011;4587;51.434;6.788;2023-02-12T05:21:24;53.87;;;40.13;;
9102;SDS011;4587;51.434;6.788;2023-02-12T05:23:50;54.73;;;40.23;;
9102;SDS011;4587;51.434;6.788;2023-02-12T05:26:17;56.83;;;40.33;;
9102;SDS011;4587;51.434;6.788;2023-02-12T05:28:44;56.10;;;40.53;;
9102;SDS011;4587;51.434;6.788;2023-02-12T05:31:12;55.37;;;40.07;;
9102;SDS011;4587;51.434;6.788;2023-02-12T05:33:43;54.90;;;39.33;;
9102;SDS011;4587;51.434;6.788;2023-02-12T05:36:10;56.60;;;40.03;;
9102;SDS011;4587;51.434;6.788;2023-02-12T05:38:38;56.70;;;40.93;;
9102;SDS011;4587;51.434;6.788;2023-02-12T05:41:04;53.53;;;38.97;;
9102;SDS011;4587;51.434;6.788;2023-02-12T05:43:32;57.00;;;40.73;;
9102;SDS011;4587;51.434;6.788;2023-02-12T05:45:58;56.57;;;40.47;;
9102;SDS011;4587;51.434;6.788;2023-02-12T05:48:25;56.20;;;39.90;;
9102;SDS011;4587;51.434;6.788;2023-02-12T05:50:51;53.07;;;39.40;;
9102;SDS011;4587;51.434;6.788;2023-02-12T05:53:17;55.27;;;39.30;;
9102;SDS011;4587;51.434;6.788;2023-02-12T05:55:42;51.50;;;38.83;;
9102;SDS011;4587;51.434;6.788;2023-02-12T05:58:08;54.20;;;38.70;;
9102;SDS011;4587;51.434;6.788;2023-02-12T06:00:33;54.20;;;39.20;;
9102;SDS011;4587;51.434;6.788;2023-02-12T06:02:59;50.97;;;38.93;;
9102;SDS011;4587;51.434;6.788;2023-02-12T06:05:25;55.17;;;39.90;;
9102;SDS011;4587;51.434;6.788;2023-02-12T06:07:50;53.90;;;38.90;;
9102;SDS011;4587;51.434;6.788;2023-02-12T06:10:16;53.97;;;39.83;;
9102;SDS011;4587;51.434;6.788;2023-02-12T06:12:41;55.53;;;40.37;;
9102;SDS011;4587;51.434;6.788;2023-02-12T06:15:07;54.07;;;39.73;;
9102;SDS011;4587;51.434;6.788;2023-02-12T06:17:33;53.37;;;39.17;;
9102;SDS011;4587;51.434;6.788;2023-02-12T06:19:58;53.50;;;39.73;;
9102;SDS011;4587;51.434;6.788;2023-02-12T06:22:24;52.87;;;38.90;;
9102;SDS011;4587;51.434;6.788;2023-02-12T06:24:49;54.30;;;39.37;;
9102;SDS011;4587;51.434;6.788;2023-02-12T06:27:15;51.80;;;39.10;;
9102;SDS011;4587;51.434;6.788;2023-02-12T06:29:40;53.27;;;39.90;;
9102;SDS011;4587;51.434;6.788;2023-02-12T06:32:07;53.77;;;39.63;;
9102;SDS011;4587;51.434;6.788;2023-02-12T06:34:32;51.77;;;38.43;;
9102;SDS011;4587;51.434;6.788;2023-02-12T06:36:58;54.03;;;39.73;;
9102;SDS011;4587;51.434;6.788;2023-02-12T06:39:24;51.07;;;39.37;;
9102;SDS011;4587;51.434;6.788;2023-02-12T06:41:49;51.57;;;37.83;;
9102;SDS011;4587;51.434;6.788;2023-02-12T06:44:15;54.07;;;38.63;;
9102;SDS011;4587;51.434;6.788;2023-02-12T06:46:40;52.83;;;39.27;;
9102;SDS011;4587;51.434;6.788;2023-02-12T06:49:06;57.03;;;40.43;;
9102;SDS011;4587;51.434;6.788;2023-02-12T06:51:32;54.47;;;38.43;;
9102;SDS011;4587;51.434;6.788;2023-02-12T06:53:58;54.37;;;39.33;;
9102;SDS011;4587;51.434;6.788;2023-02-12T06:56:24;53.23;;;38.20;;
9102;SDS011;4587;51.434;6.788;2023-02-12T06:58:51;52.97;;;38.93;;
9102;SDS011;4587;51.434;6.788;2023-02-12T07:01:23;52.50;;;38.33;;
9102;SDS011;4587;51.434;6.788;2023-02-12T07:06:18;56.83;;;39.50;;
9102;SDS011;4587;51.434;6.788;2023-02-12T07:08:44;53.30;;;39.20;;
9102;SDS011;4587;51.434;6.788;2023-02-12T07:11:10;54.10;;;39.20;;
9102;SDS011;4587;51.434;6.788;2023-02-12T07:13:36;52.83;;;37.57;;
9102;SDS011;4587;51.434;6.788;2023-02-12T07:16:06;49.63;;;37.37;;
9102;SDS011;4587;51.434;6.788;2023-02-12T07:18:35;57.53;;;40.77;;
9102;SDS011;4587;51.434;6.788;2023-02-12T07:21:02;56.80;;;40.17;;
9102;SDS011;4587;51.434;6.788;2023-02-12T07:23:28;54.70;;;39.53;;
9102;SDS011;4587;51.434;6.788;2023-02-12T07:25:55;52.13;;;38.60;;
9102;SDS011;4587;51.434;6.788;2023-02-12T07:28:24;53.10;;;39.23;;
9102;SDS011;4587;51.434;6.788;2023-02-12T07:30:50;54.37;;;38.07;;
9102;SDS011;4587;51.434;6.788;2023-02-12T07:33:16;50.57;;;37.57;;
9102;SDS011;4587;51.434;6.788;2023-02-12T07:35:44;54.00;;;39.40;;
9102;SDS011;4587;51.434;6.788;2023-02-12T07:38:10;55.70;;;38.57;;
9102;SDS011;4587;51.434;6.788;2023-02-12T07:40:36;55.43;;;38.20;;
9102;SDS011;4587;51.434;6.788;2023-02-12T07:43:02;54.53;;;39.63;;
9102;SDS011;4587;51.434;6.788;2023-02-12T07:45:27;52.10;;;38.60;;
9102;SDS011;4587;51.434;6.788;2023-02-12T07:47:53;51.47;;;38.47;;
9102;SDS011;4587;51.434;6.788;2023-02-12T07:50:18;56.13;;;38.80;;
9102;SDS011;4587;51.434;6.788;2023-02-12T07:52:44;52.97;;;38.57;;
9102;SDS011;4587;51.434;6.788;2023-02-12T07:55:12;51.60;;;38.83;;
9102;SDS011;4587;51.434;6.788;2023-02-12T07:57:37;54.83;;;40.23;;
9102;SDS011;4587;51.434;6.788;2023-02-12T08:00:03;55.40;;;39.60;;
9102;SDS011;4587;51.434;6.788;2023-02-12T08:02:30;52.03;;;39.33;;
9102;SDS011;4587;51.434;6.788;2023-02-12T08:04:55;52.77;;;38.53;;
9102;SDS011;4587;51.434;6.788;2023-02-12T08:07:22;54.83;;;38.87;;
9102;SDS011;4587;51.434;6.788;2023-02-12T08:09:48;54.20;;;40.17;;
9102;SDS011;4587;51.434;6.788;2023-02-12T08:12:15;53.63;;;39.73;;
9102;SDS011;4587;51.434;6.788;2023-02-12T08:14:41;54.67;;;40.47;;
9102;SDS011;4587;51.434;6.788;2023-02-12T08:17:06;53.43;;;39.70;;
9102;SDS011;4587;51.434;6.788;2023-02-12T08:19:33;56.77;;;39.77;;
9102;SDS011;4587;51.434;6.788;2023-02-12T08:21:59;55.60;;;39.43;;
9102;SDS011;4587;51.434;6.788;2023-02-12T08:24:27;57.13;;;39.80;;
9102;SDS011;4587;51.434;6.788;2023-02-12T08:26:53;53.73;;;39.70;;
9102;SDS011;4587;51.434;6.788;2023-02-12T08:29:20;58.20;;;41.17;;
9102;SDS011;4587;51.434;6.788;2023-02-12T08:31:48;53.10;;;39.40;;
9102;SDS011;4587;51.434;6.788;2023-02-12T08:34:22;57.10;;;39.93;;
9102;SDS011;4587;51.434;6.788;2023-02-12T08:36:50;58.83;;;39.90;;
9102;SDS011;4587;51.434;6.788;2023-02-12T08:39:20;52.77;;;39.27;;
9102;SDS011;4587;51.434;6.788;2023-02-12T08:41:47;56.20;;;39.80;;
9102;SDS011;4587;51.434;6.788;2023-02-12T08:44:13;53.13;;;39.20;;
9102;SDS011;4587;51.434;6.788;2023-02-12T08:46:47;59.03;;;40.70;;
9102;SDS011;4587;51.434;6.788;2023-02-12T08:49:19;56.17;;;40.53;;
9102;SDS011;4587;51.434;6.788;2023-02-12T08:51:50;55.80;;;40.63;;
9102;SDS011;4587;51.434;6.788;2023-02-12T08:54:19;60.33;;;44.83;;
9102;SDS011;4587;51.434;6.788;2023-02-12T08:56:46;60.60;;;44.83;;
9102;SDS011;4587;51.434;6.788;2023-02-12T08:59:12;63.50;;;47.20;;
9102;SDS011;4587;51.434;6.788;2023-02-12T09:01:39;65.00;;;49.20;;
9102;SDS011;4587;51.434;6.788;2023-02-12T09:04:07;64.43;;;47.83;;
9102;SDS011;4587;51.434;6.788;2023-02-12T09:06:37;62.63;;;47.90;;
9102;SDS011;4587;51.434;6.788;2023-02-12T09:09:02;65.37;;;48.13;;
9102;SDS011;4587;51.434;6.788;2023-02-12T09:11:28;60.67;;;45.00;;
9102;SDS011;4587;51.434;6.788;2023-02-12T09:13:55;64.00;;;45.27;;
9102;SDS011;4587;51.434;6.788;2023-02-12T09:16:26;60.23;;;43.53;;
9102;SDS011;4587;51.434;6.788;2023-02-12T09:18:52;60.57;;;44.23;;
9102;SDS011;4587;51.434;6.788;2023-02-12T09:21:19;58.23;;;44.13;;
9102;SDS011;4587;51.434;6.788;2023-02-12T09:23:45;60.63;;;45.23;;
9102;SDS011;4587;51.434;6.788;2023-02-12T09:26:12;58.00;;;44.00;;
9102;SDS011;4587;51.434;6.788;2023-02-12T09:28:41;60.80;;;45.97;;
9102;SDS011;4587;51.434;6.788;2023-02-12T09:31:09;58.57;;;44.27;;
9102;SDS011;4587;51.434;6.788;2023-02-12T09:33:36;65.10;;;46.23;;
9102;SDS011;4587;51.434;6.788;2023-02-12T09:36:03;53.93;;;43.70;;
9102;SDS011;4587;51.434;6.788;2023-02-12T09:38:31;55.03;;;41.13;;
9102;SDS011;4587;51.434;6.788;2023-02-12T09:46:56;49.07;;;39.80;;
9102;SDS011;4587;51.434;6.788;2023-02-12T09:49:40;53.83;;;39.33;;
9102;SDS011;4587;51.434;6.788;2023-02-12T09:52:17;46.07;;;37.77;;
9102;SDS011;4587;51.434;6.788;2023-02-12T09:54:44;46.87;;;36.70;;
9102;SDS011;4587;51.434;6.788;2023-02-12T09:57:31;43.63;;;33.80;;
9102;SDS011;4587;51.434;6.788;2023-02-12T10:00:21;42.47;;;31.53;;
9102;SDS011;4587;51.434;6.788;2023-02-12T10:02:55;38.47;;;30.13;;
9102;SDS011;4587;51.434;6.788;2023-02-12T10:05:26;40.57;;;32.30;;
9102;SDS011;4587;51.434;6.788;2023-02-12T10:10:42;40.87;;;33.23;;
9102;SDS011;4587;51.434;6.788;2023-02-12T10:16:19;46.43;;;34.13;;
9102;SDS011;4587;51.434;6.788;2023-02-12T10:18:52;39.80;;;33.10;;
9102;SDS011;4587;51.434;6.788;2023-02-12T10:24:26;42.03;;;33.73;;
9102;SDS011;4587;51.434;6.788;2023-02-12T10:27:01;44.30;;;35.27;;
9102;SDS011;4587;51.434;6.788;2023-02-12T10:29:33;43.77;;;35.83;;
9102;SDS011;4587;51.434;6.788;2023-02-12T10:32:04;47.37;;;35.03;;
9102;SDS011;4587;51.434;6.788;2023-02-12T10:34:35;42.13;;;33.50;;
9102;SDS011;4587;51.434;6.788;2023-02-12T10:37:24;47.07;;;35.70;;
9102;SDS011;4587;51.434;6.788;2023-02-12T10:39:52;43.57;;;33.57;;
9102;SDS011;4587;51.434;6.788;2023-02-12T10:42:41;39.03;;;32.80;;
9102;SDS011;4587;51.434;6.788;2023-02-12T10:45:51;37.97;;;30.63;;
9102;SDS011;4587;51.434;6.788;2023-02-12T10:48:03;40.67;;;31.37;;
9102;SDS011;4587;51.434;6.788;2023-02-12T10:50:38;42.60;;;31.47;;
9102;SDS011;4587;51.434;6.788;2023-02-12T10:53:25;40.27;;;32.33;;
9102;SDS011;4587;51.434;6.788;2023-02-12T10:56:04;42.80;;;32.83;;
9102;SDS011;4587;51.434;6.788;2023-02-12T10:58:31;44.33;;;33.57;;
9102;SDS011;4587;51.434;6.788;2023-02-12T11:00:57;40.20;;;33.27;;
9102;SDS011;4587;51.434;6.788;2023-02-12T11:03:30;43.43;;;34.37;;
9102;SDS011;4587;51.434;6.788;2023-02-12T11:06:12;41.20;;;33.93;;
9102;SDS011;4587;51.434;6.788;2023-02-12T11:08:43;40.47;;;34.07;;
9102;SDS011;4587;51.434;6.788;2023-02-12T11:11:19;39.63;;;32.50;;
9102;SDS011;4587;51.434;6.788;2023-02-12T11:13:46;40.37;;;32.20;;
9102;SDS011;4587;51.434;6.788;2023-02-12T11:16:39;38.33;;;32.07;;
9102;SDS011;4587;51.434;6.788;2023-02-12T11:19:18;38.60;;;31.67;;
9102;SDS011;4587;51.434;6.788;2023-02-12T11:21:47;41.90;;;32.03;;
9102;SDS011;4587;51.434;6.788;2023-02-12T11:24:30;36.83;;;30.50;;
9102;SDS011;4587;51.434;6.788;2023-02-12T11:30:12;35.50;;;29.63;;
9102;SDS011;4587;51.434;6.788;2023-02-12T11:32:45;40.80;;;31.80;;
9102;SDS011;4587;51.434;6.788;2023-02-12T11:35:17;34.80;;;30.53;;
9102;SDS011;4587;51.434;6.788;2023-02-12T11:38:01;36.20;;;30.50;;
9102;SDS011;4587;51.434;6.788;2023-02-12T11:40:28;38.07;;;32.10;;
9102;SDS011;4587;51.434;6.788;2023-02-12T11:43:06;38.47;;;32.10;;
9102;SDS011;4587;51.434;6.788;2023-02-12T11:45:36;39.17;;;31.87;;
9102;SDS011;4587;51.434;6.788;2023-02-12T11:50:50;38.67;;;31.13;;
9102;SDS011;4587;51.434;6.788;2023-02-12T11:53:19;38.33;;;30.27;;
9102;SDS011;4587;51.434;6.788;2023-02-12T11:55:53;39.90;;;31.37;;
9102;SDS011;4587;51.434;6.788;2023-02-12T11:58:30;36.83;;;30.83;;
9102;SDS011;4587;51.434;6.788;2023-02-12T12:03:43;37.00;;;30.43;;
9102;SDS011;4587;51.434;6.788;2023-02-12T12:09:04;37.23;;;32.20;;
9102;SDS011;4587;51.434;6.788;2023-02-12T12:11:33;37.10;;;30.67;;
9102;SDS011;4587;51.434;6.788;2023-02-12T12:16:46;37.47;;;30.43;;
9102;SDS011;4587;51.434;6.788;2023-02-12T12:25:28;39.50;;;30.53;;
9102;SDS011;4587;51.434;6.788;2023-02-12T12:33:13;35.87;;;28.50;;
9102;SDS011;4587;51.434;6.788;2023-02-12T12:38:22;42.83;;;31.47;;
9102;SDS011;4587;51.434;6.788;2023-02-12T12:41:02;36.70;;;29.53;;
9102;SDS011;4587;51.434;6.788;2023-02-12T12:43:54;37.07;;;29.60;;
9102;SDS011;4587;51.434;6.788;2023-02-12T12:46:32;39.87;;;29.87;;
9102;SDS011;4587;51.434;6.788;2023-02-12T12:49:25;39.77;;;30.90;;
9102;SDS011;4587;51.434;6.788;2023-02-12T12:54:47;38.33;;;30.60;;
9102;SDS011;4587;51.434;6.788;2023-02-12T13:00:40;44.13;;;32.07;;
9102;SDS011;4587;51.434;6.788;2023-02-12T13:19:56;40.87;;;31.37;;
9102;SDS011;4587;51.434;6.788;2023-02-12T13:25:21;37.20;;;29.40;;
9102;SDS011;4587;51.434;6.788;2023-02-12T13:28:05;35.67;;;29.17;;
9102;SDS011;4587;51.434;6.788;2023-02-12T13:30:41;37.33;;;28.80;;
9102;SDS011;4587;51.434;6.788;2023-02-12T13:33:20;36.83;;;27.37;;
9102;SDS011;4587;51.434;6.788;2023-02-12T13:35:53;36.57;;;28.33;;
9102;SDS011;4587;51.434;6.788;2023-02-12T13:38:27;37.70;;;29.37;;
9102;SDS011;4587;51.434;6.788;2023-02-12T13:41:02;37.83;;;29.17;;
9102;SDS011;4587;51.434;6.788;2023-02-12T13:43:41;34.13;;;28.37;;
9102;SDS011;4587;51.434;6.788;2023-02-12T13:46:13;39.37;;;29.90;;
9102;SDS011;4587;51.434;6.788;2023-02-12T13:49:08;36.00;;;28.97;;
9102;SDS011;4587;51.434;6.788;2023-02-12T13:57:20;38.43;;;28.77;;
9102;SDS011;4587;51.434;6.788;2023-02-12T13:59:47;36.87;;;29.40;;
9102;SDS011;4587;51.434;6.788;2023-02-12T14:02:29;40.23;;;29.90;;
9102;SDS011;4587;51.434;6.788;2023-02-12T14:07:59;37.63;;;29.60;;
9102;SDS011;4587;51.434;6.788;2023-02-12T14:12:58;35.60;;;28.70;;
9102;SDS011;4587;51.434;6.788;2023-02-12T14:15:46;34.57;;;28.93;;
9102;SDS011;4587;51.434;6.788;2023-02-12T14:18:27;34.10;;;27.50;;
9102;SDS011;4587;51.434;6.788;2023-02-12T14:23:35;36.90;;;28.73;;
9102;SDS011;4587;51.434;6.788;2023-02-12T14:28:54;35.90;;;28.33;;
9102;SDS011;4587;51.434;6.788;2023-02-12T14:33:52;37.73;;;28.13;;
9102;SDS011;4587;51.434;6.788;2023-02-12T14:41:48;29.53;;;26.33;;
9102;SDS011;4587;51.434;6.788;2023-02-12T14:46:48;38.40;;;28.67;;
9102;SDS011;4587;51.434;6.788;2023-02-12T14:52:03;36.23;;;27.70;;
9102;SDS011;4587;51.434;6.788;2023-02-12T14:54:42;33.90;;;27.20;;
9102;SDS011;4587;51.434;6.788;2023-02-12T14:57:26;34.60;;;27.37;;
9102;SDS011;4587;51.434;6.788;2023-02-12T15:00:02;32.47;;;27.10;;
9102;SDS011;4587;51.434;6.788;2023-02-12T15:02:43;33.90;;;26.87;;
9102;SDS011;4587;51.434;6.788;2023-02-12T15:05:13;35.73;;;27.80;;
9102;SDS011;4587;51.434;6.788;2023-02-12T15:10:33;33.43;;;26.40;;
9102;SDS011;4587;51.434;6.788;2023-02-12T15:13:07;35.90;;;28.00;;
9102;SDS011;4587;51.434;6.788;2023-02-12T15:15:53;33.63;;;27.27;;
9102;SDS011;4587;51.434;6.788;2023-02-12T15:21:10;30.97;;;26.17;;
9102;SDS011;4587;51.434;6.788;2023-02-12T15:23:45;33.17;;;26.27;;
9102;SDS011;4587;51.434;6.788;2023-02-12T15:26:14;33.57;;;26.17;;
9102;SDS011;4587;51.434;6.788;2023-02-12T15:28:44;31.37;;;26.53;;
9102;SDS011;4587;51.434;6.788;2023-02-12T15:31:13;33.10;;;26.60;;
9102;SDS011;4587;51.434;6.788;2023-02-12T15:33:44;35.07;;;25.63;;
9102;SDS011;4587;51.434;6.788;2023-02-12T15:36:15;30.53;;;24.23;;
9102;SDS011;4587;51.434;6.788;2023-02-12T15:38:42;34.23;;;27.03;;
9102;SDS011;4587;51.434;6.788;2023-02-12T15:41:28;31.70;;;25.47;;
9102;SDS011;4587;51.434;6.788;2023-02-12T15:46:52;37.57;;;27.23;;
9102;SDS011;4587;51.434;6.788;2023-02-12T15:49:28;35.03;;;27.10;;
9102;SDS011;4587;51.434;6.788;2023-02-12T15:52:06;35.60;;;28.33;;
9102;SDS011;4587;51.434;6.788;2023-02-12T15:54:32;36.60;;;27.63;;
9102;SDS011;4587;51.434;6.788;2023-02-12T15:56:59;35.70;;;28.10;;
9102;SDS011;4587;51.434;6.788;2023-02-12T15:59:25;34.37;;;28.50;;
9102;SDS011;4587;51.434;6.788;2023-02-12T16:01:53;35.33;;;28.23;;
9102;SDS011;4587;51.434;6.788;2023-02-12T16:04:25;36.67;;;27.57;;
9102;SDS011;4587;51.434;6.788;2023-02-12T16:06:54;34.73;;;28.30;;
9102;SDS011;4587;51.434;6.788;2023-02-12T16:09:22;35.97;;;28.30;;
9102;SDS011;4587;51.434;6.788;2023-02-12T16:11:57;34.33;;;27.33;;
9102;SDS011;4587;51.434;6.788;2023-02-12T16:14:26;35.77;;;29.10;;
9102;SDS011;4587;51.434;6.788;2023-02-12T16:16:58;34.03;;;26.57;;
9102;SDS011;4587;51.434;6.788;2023-02-12T16:19:29;37.20;;;29.73;;
9102;SDS011;4587;51.434;6.788;2023-02-12T16:24:32;34.67;;;29.07;;
9102;SDS011;4587;51.434;6.788;2023-02-12T16:27:06;38.27;;;28.63;;
9102;SDS011;4587;51.434;6.788;2023-02-12T16:29:45;34.53;;;27.83;;
9102;SDS011;4587;51.434;6.788;2023-02-12T16:32:30;35.57;;;29.20;;
9102;SDS011;4587;51.434;6.788;2023-02-12T16:35:05;37.17;;;29.10;;
9102;SDS011;4587;51.434;6.788;2023-02-12T16:42:37;33.10;;;27.67;;
9102;SDS011;4587;51.434;6.788;2023-02-12T16:47:51;39.07;;;30.00;;
9102;SDS011;4587;51.434;6.788;2023-02-12T16:50:20;36.40;;;29.30;;
9102;SDS011;4587;51.434;6.788;2023-02-12T16:52:48;38.67;;;28.50;;
9102;SDS011;4587;51.434;6.788;2023-02-12T16:55:15;39.87;;;30.37;;
9102;SDS011;4587;51.434;6.788;2023-02-12T16:57:42;34.87;;;28.90;;
9102;SDS011;4587;51.434;6.788;2023-02-12T17:00:08;34.13;;;29.70;;
9102;SDS011;4587;51.434;6.788;2023-02-12T17:02:36;38.47;;;29.00;;
9102;SDS011;4587;51.434;6.788;2023-02-12T17:05:02;48.10;;;37.50;;
9102;SDS011;4587;51.434;6.788;2023-02-12T17:07:31;39.30;;;29.63;;
9102;SDS011;4587;51.434;6.788;2023-02-12T17:09:57;38.73;;;29.30;;
9102;SDS011;4587;51.434;6.788;2023-02-12T17:12:23;40.30;;;29.60;;
9102;SDS011;4587;51.434;6.788;2023-02-12T17:14:49;37.37;;;29.27;;
9102;SDS011;4587;51.434;6.788;2023-02-12T17:17:15;40.63;;;30.07;;
9102;SDS011;4587;51.434;6.788;2023-02-12T17:19:41;38.80;;;29.37;;
9102;SDS011;4587;51.434;6.788;2023-02-12T17:22:07;39.07;;;28.60;;
9102;SDS011;4587;51.434;6.788;2023-02-12T17:24:43;35.67;;;28.10;;
9102;SDS011;4587;51.434;6.788;2023-02-12T17:27:13;37.10;;;28.27;;
9102;SDS011;4587;51.434;6.788;2023-02-12T17:29:38;38.43;;;29.40;;
9102;SDS011;4587;51.434;6.788;2023-02-12T17:32:04;35.60;;;28.90;;
9102;SDS011;4587;51.434;6.788;2023-02-12T17:34:30;42.00;;;30.50;;
9102;SDS011;4587;51.434;6.788;2023-02-12T17:36:55;35.10;;;28.47;;
9102;SDS011;4587;51.434;6.788;2023-02-12T17:39:21;37.47;;;30.20;;
9102;SDS011;4587;51.434;6.788;2023-02-12T17:41:46;37.00;;;29.13;;
9102;SDS011;4587;51.434;6.788;2023-02-12T17:44:12;36.53;;;30.33;;
9102;SDS011;4587;51.434;6.788;2023-02-12T17:46:39;39.63;;;30.23;;
9102;SDS011;4587;51.434;6.788;2023-02-12T17:49:05;38.97;;;30.83;;
9102;SDS011;4587;51.434;6.788;2023-02-12T17:51:31;37.83;;;30.37;;
9102;SDS011;4587;51.434;6.788;2023-02-12T17:53:57;37.20;;;29.77;;
9102;SDS011;4587;51.434;6.788;2023-02-12T17:56:22;38.37;;;30.23;;
9102;SDS011;4587;51.434;6.788;2023-02-12T17:58:51;36.00;;;28.63;;
9102;SDS011;4587;51.434;6.788;2023-02-12T18:01:18;38.17;;;30.47;;
9102;SDS011;4587;51.434;6.788;2023-02-12T18:03:45;37.27;;;30.77;;